createdAt,value
2018-03-23T00:01:51.644Z,100615.53
2018-03-23T00:04:17.315Z,100620.59
2018-03-23T00:06:42.965Z,100624.91
2018-03-23T00:09:08.645Z,100621.19
2018-03-23T00:11:34.297Z,100620.17
2018-03-23T00:13:59.953Z,100620.17
2018-03-23T00:16:25.621Z,100614.77
2018-03-23T00:18:51.284Z,100604.66
2018-03-23T00:21:16.951Z,100614.11
2018-03-23T00:23:42.636Z,100607.56
2018-03-23T00:26:08.280Z,100619.52
2018-03-23T00:28:34.252Z,100617.03
2018-03-23T00:30:59.948Z,100621.19
2018-03-23T00:33:25.606Z,100617.37
2018-03-23T00:35:51.251Z,100615.64
2018-03-23T00:38:16.920Z,100621.52
2018-03-23T00:40:42.588Z,100630.48
2018-03-23T00:43:08.267Z,100633.13
2018-03-23T00:45:33.923Z,100629.86
2018-03-23T00:47:59.569Z,100619.61
2018-03-23T00:50:25.224Z,100619.48
2018-03-23T00:52:51.204Z,100626.53
2018-03-23T00:55:16.855Z,100623.88
2018-03-23T00:57:42.528Z,100621.70
2018-03-23T01:00:08.186Z,100622.84
2018-03-23T01:02:33.843Z,100598.61
2018-03-23T01:04:59.517Z,100611.42
2018-03-23T01:07:25.167Z,100610.33
2018-03-23T01:09:50.826Z,100613.95
2018-03-23T01:12:16.505Z,100606.64
2018-03-23T01:14:42.176Z,100605.09
2018-03-23T01:17:07.837Z,100602.50
2018-03-23T01:19:33.512Z,100598.53
2018-03-23T01:21:59.481Z,100600.14
2018-03-23T01:24:25.145Z,100603.20
2018-03-23T01:26:50.824Z,100604.00
2018-03-23T01:29:16.488Z,100599.52
2018-03-23T01:31:42.132Z,100604.34
2018-03-23T01:34:07.811Z,100604.42
2018-03-23T01:36:33.479Z,100602.95
2018-03-23T01:38:59.244Z,100602.60
2018-03-23T01:41:24.924Z,100602.23
2018-03-23T01:43:50.585Z,100608.93
2018-03-23T01:46:16.232Z,100598.59
2018-03-23T01:48:41.907Z,100587.62
2018-03-23T01:51:07.590Z,100600.14
2018-03-23T01:53:39.400Z,100594.69
2018-03-23T01:56:05.068Z,100601.98
2018-03-23T01:58:31.169Z,100597.05
2018-03-23T02:00:56.842Z,100598.30
2018-03-23T02:03:22.508Z,100593.25
2018-03-23T02:05:48.172Z,100583.84
2018-03-23T02:08:13.833Z,100588.03
2018-03-23T02:10:39.506Z,100587.69
2018-03-23T02:13:05.172Z,100583.17
2018-03-23T02:15:30.836Z,100583.63
2018-03-23T02:17:56.479Z,100578.64
2018-03-23T02:20:22.149Z,100579.52
2018-03-23T02:22:47.808Z,100573.44
2018-03-23T02:25:14.034Z,100576.16
2018-03-23T02:27:39.809Z,100580.36
2018-03-23T02:30:05.590Z,100576.14
2018-03-23T02:32:31.345Z,100567.25
2018-03-23T02:34:57.103Z,100568.39
2018-03-23T02:37:22.845Z,100566.83
2018-03-23T02:39:48.598Z,100568.09
2018-03-23T02:42:14.368Z,100569.15
2018-03-23T02:44:40.130Z,100560.31
2018-03-23T02:47:05.793Z,100561.45
2018-03-23T02:49:31.484Z,100559.58
2018-03-23T02:51:57.156Z,100566.02
2018-03-23T02:54:22.841Z,100555.28
2018-03-23T02:56:49.020Z,100553.56
2018-03-23T02:59:14.669Z,100554.46
2018-03-23T03:01:40.348Z,100554.47
2018-03-23T03:04:06.024Z,100549.41
2018-03-23T03:06:31.717Z,100523.95
2018-03-23T03:08:57.388Z,100541.11
2018-03-23T03:11:23.067Z,100543.23
2018-03-23T03:13:48.715Z,100539.50
2018-03-23T03:16:15.257Z,100540.56
2018-03-23T03:18:40.920Z,100533.85
2018-03-23T03:21:06.582Z,100541.28
2018-03-23T03:23:32.664Z,100538.52
2018-03-23T03:25:58.340Z,100531.77
2018-03-23T03:28:23.995Z,100533.27
2018-03-23T03:30:49.682Z,100531.67
2018-03-23T03:33:15.348Z,100510.14
2018-03-23T03:35:41.057Z,100523.48
2018-03-23T03:38:06.733Z,100519.05
2018-03-23T03:40:32.666Z,100524.08
2018-03-23T03:42:58.323Z,100518.51
2018-03-23T03:45:23.990Z,100517.67
2018-03-23T03:47:49.674Z,100519.73
2018-03-23T03:50:15.334Z,100508.95
2018-03-23T03:52:40.980Z,100509.80
2018-03-23T03:55:06.645Z,100510.80
2018-03-23T03:57:32.385Z,100511.39
2018-03-23T03:59:58.511Z,100513.03
2018-03-23T04:02:24.277Z,100506.35
2018-03-23T04:04:49.933Z,100515.03
2018-03-23T04:07:15.607Z,100507.16
2018-03-23T04:09:41.261Z,100508.63
2018-03-23T04:12:06.925Z,100505.05
2018-03-23T04:14:32.604Z,100499.73
2018-03-23T04:16:58.261Z,100508.24
2018-03-23T04:19:23.911Z,100499.05
2018-03-23T04:21:49.589Z,100496.66
2018-03-23T04:24:15.577Z,100497.72
2018-03-23T04:26:41.224Z,100489.74
2018-03-23T04:29:06.885Z,100475.73
2018-03-23T04:31:32.540Z,100479.43
2018-03-23T04:33:58.206Z,100487.78
2018-03-23T04:36:23.879Z,100486.22
2018-03-23T04:38:49.536Z,100489.83
2018-03-23T04:41:15.196Z,100489.41
2018-03-23T04:43:40.868Z,100487.40
2018-03-23T04:46:06.520Z,100487.44
2018-03-23T04:48:32.160Z,100483.95
2018-03-23T04:50:57.836Z,100482.16
2018-03-23T04:53:23.510Z,100481.65
2018-03-23T04:55:49.489Z,100472.09
2018-03-23T04:58:15.155Z,100473.13
2018-03-23T05:00:40.802Z,100466.52
2018-03-23T05:03:06.464Z,100471.03
2018-03-23T05:05:32.140Z,100474.85
2018-03-23T05:07:57.804Z,100471.92
2018-03-23T05:10:23.456Z,100469.14
2018-03-23T05:12:49.104Z,100465.25
2018-03-23T05:15:14.760Z,100466.47
2018-03-23T05:17:40.442Z,100468.81
2018-03-23T05:20:06.109Z,100459.21
2018-03-23T05:22:31.752Z,100466.05
2018-03-23T05:24:57.441Z,100476.03
2018-03-23T05:27:23.496Z,100480.14
2018-03-23T05:29:49.164Z,100485.22
2018-03-23T05:32:14.832Z,100479.27
2018-03-23T05:34:40.467Z,100477.92
2018-03-23T05:37:06.124Z,100472.30
2018-03-23T05:39:31.782Z,100480.44
2018-03-23T05:41:57.448Z,100482.24
2018-03-23T05:44:23.096Z,100482.91
2018-03-23T05:46:48.751Z,100478.92
2018-03-23T05:49:14.404Z,100481.31
2018-03-23T05:51:40.070Z,100482.20
2018-03-23T05:54:05.719Z,100478.67
2018-03-23T05:56:31.679Z,100479.18
2018-03-23T05:58:57.395Z,100480.19
2018-03-23T06:01:23.040Z,100474.30
2018-03-23T06:03:48.683Z,100479.17
2018-03-23T06:06:14.382Z,100473.27
2018-03-23T06:08:40.038Z,100472.89
2018-03-23T06:11:05.696Z,100467.50
2018-03-23T06:13:31.377Z,100469.64
2018-03-23T06:15:57.024Z,100463.47
2018-03-23T06:18:22.681Z,100466.98
2018-03-23T06:20:48.384Z,100468.31
2018-03-23T06:23:14.031Z,100477.75
2018-03-23T06:25:40.096Z,100472.66
2018-03-23T06:28:05.817Z,100468.78
2018-03-23T06:30:31.489Z,100461.83
2018-03-23T06:32:57.158Z,100467.82
2018-03-23T06:35:22.845Z,100463.65
2018-03-23T06:37:48.517Z,100470.96
2018-03-23T06:40:14.175Z,100473.39
2018-03-23T06:42:39.848Z,100462.33
2018-03-23T06:45:05.512Z,100464.13
2018-03-23T06:47:31.164Z,100464.52
2018-03-23T06:49:56.844Z,100465.55
2018-03-23T06:52:22.492Z,100469.16
2018-03-23T06:54:48.574Z,100466.28
2018-03-23T06:57:14.241Z,100460.13
2018-03-23T06:59:39.905Z,100467.77
2018-03-23T07:02:05.580Z,100467.26
2018-03-23T07:04:31.252Z,100465.59
2018-03-23T07:06:56.891Z,100465.30
2018-03-23T07:09:22.553Z,100463.58
2018-03-23T07:11:48.230Z,100466.72
2018-03-23T07:14:13.876Z,100467.61
2018-03-23T07:16:39.532Z,100465.61
2018-03-23T07:19:05.197Z,100470.77
2018-03-23T07:21:30.848Z,100469.21
2018-03-23T07:23:56.499Z,100467.20
2018-03-23T07:26:22.573Z,100464.53
2018-03-23T07:28:48.225Z,100469.70
2018-03-23T07:31:13.880Z,100460.02
2018-03-23T07:33:39.540Z,100458.53
2018-03-23T07:36:05.208Z,100453.19
2018-03-23T07:38:30.862Z,100458.39
2018-03-23T07:40:56.541Z,100453.08
2018-03-23T07:43:22.489Z,100445.48
2018-03-23T07:45:48.148Z,100447.20
2018-03-23T07:53:41.844Z,100444.48
2018-03-23T07:56:07.500Z,100449.13
2018-03-23T07:58:33.168Z,100446.70
2018-03-23T08:00:58.848Z,100446.47
2018-03-23T08:03:25.121Z,100442.19
2018-03-23T08:05:50.804Z,100436.50
2018-03-23T08:08:16.496Z,100437.42
2018-03-23T08:10:42.163Z,100437.22
2018-03-23T08:13:07.846Z,100436.23
2018-03-23T08:15:33.525Z,100438.72
2018-03-23T08:17:59.205Z,100442.17
2018-03-23T08:20:24.876Z,100436.54
2018-03-23T08:22:50.605Z,100443.07
2018-03-23T08:25:16.252Z,100434.34
2018-03-23T08:27:41.899Z,100427.95
2018-03-23T08:30:07.992Z,100427.42
2018-03-23T08:32:33.664Z,100426.40
2018-03-23T08:34:59.326Z,100435.62
2018-03-23T08:37:25.001Z,100429.81
2018-03-23T08:39:50.676Z,100431.06
2018-03-23T08:42:16.347Z,100436.27
2018-03-23T08:44:42.048Z,100425.67
2018-03-23T08:47:07.721Z,100423.64
2018-03-23T08:49:33.411Z,100420.22
2018-03-23T08:51:59.544Z,100409.52
2018-03-23T08:54:25.244Z,100412.17
2018-03-23T08:56:50.953Z,100411.32
2018-03-23T08:59:16.657Z,100404.99
2018-03-23T09:01:42.329Z,100403.44
2018-03-23T09:04:07.997Z,100404.96
2018-03-23T09:06:33.661Z,100399.66
2018-03-23T09:08:59.770Z,100398.52
2018-03-23T09:11:25.438Z,100405.09
2018-03-23T09:13:51.132Z,100407.12
2018-03-23T09:16:16.789Z,100404.96
2018-03-23T09:18:42.464Z,100406.42
2018-03-23T09:21:08.136Z,100402.06
2018-03-23T09:23:33.796Z,100397.80
2018-03-23T09:25:59.492Z,100404.38
2018-03-23T09:28:25.175Z,100401.30
2018-03-23T09:30:51.081Z,100396.63
2018-03-23T09:33:17.044Z,100399.94
2018-03-23T09:35:42.708Z,100396.48
2018-03-23T09:38:08.363Z,100394.06
2018-03-23T09:40:34.049Z,100395.03
2018-03-23T09:42:59.704Z,100393.41
2018-03-23T09:45:25.353Z,100392.25
2018-03-23T09:47:51.033Z,100381.94
2018-03-23T09:50:16.684Z,100386.54
2018-03-23T09:52:42.382Z,100386.47
2018-03-23T09:55:08.069Z,100379.22
2018-03-23T09:57:34.181Z,100376.84
2018-03-23T09:59:59.845Z,100378.59
2018-03-23T10:02:25.541Z,100376.41
2018-03-23T10:04:51.209Z,100371.59
2018-03-23T10:07:16.889Z,100363.31
2018-03-23T10:09:42.576Z,100367.73
2018-03-23T10:12:08.232Z,100368.19
2018-03-23T10:14:33.889Z,100366.08
2018-03-23T10:16:59.580Z,100358.25
2018-03-23T10:19:25.249Z,100359.69
2018-03-23T10:21:50.900Z,100362.73
2018-03-23T10:24:16.978Z,100356.49
2018-03-23T10:26:42.653Z,100352.97
2018-03-23T10:29:08.307Z,100354.49
2018-03-23T10:31:34.027Z,100351.25
2018-03-23T10:33:59.712Z,100349.88
2018-03-23T10:36:25.384Z,100350.91
2018-03-23T10:38:51.082Z,100340.48
2018-03-23T10:41:16.976Z,100335.12
2018-03-23T10:43:42.650Z,100337.30
2018-03-23T10:46:08.346Z,100336.05
2018-03-23T10:48:34.024Z,100324.77
2018-03-23T10:50:59.697Z,100314.28
2018-03-23T10:53:25.458Z,100316.23
2018-03-23T10:55:51.077Z,100312.21
2018-03-23T10:58:16.769Z,100309.64
2018-03-23T11:00:48.884Z,100314.36
2018-03-23T11:03:14.564Z,100305.72
2018-03-23T11:05:40.236Z,100310.23
2018-03-23T11:08:05.908Z,100311.42
2018-03-23T11:10:31.567Z,100308.94
2018-03-23T11:12:57.228Z,100310.50
2018-03-23T11:15:22.997Z,100309.33
2018-03-23T11:17:48.765Z,100313.74
2018-03-23T11:20:14.518Z,100318.87
2018-03-23T11:22:40.293Z,100316.70
2018-03-23T11:25:05.972Z,100309.80
2018-03-23T11:27:31.641Z,100302.80
2018-03-23T11:29:57.355Z,100303.44
2018-03-23T11:32:23.480Z,100300.63
2018-03-23T11:34:49.152Z,100296.66
2018-03-23T11:37:14.812Z,100296.19
2018-03-23T11:39:40.512Z,100288.81
2018-03-23T11:42:06.180Z,100285.72
2018-03-23T11:44:31.864Z,100284.69
2018-03-23T11:46:57.630Z,100279.76
2018-03-23T11:49:23.320Z,100276.42
2018-03-23T11:51:48.996Z,100276.72
2018-03-23T11:54:14.650Z,100271.67
2018-03-23T11:56:40.337Z,100265.67
2018-03-23T11:59:05.993Z,100272.05
2018-03-23T12:01:32.052Z,100269.19
2018-03-23T12:03:57.740Z,100271.19
2018-03-23T12:06:23.408Z,100264.29
2018-03-23T12:08:49.061Z,100264.68
2018-03-23T12:11:14.728Z,100257.00
2018-03-23T12:13:40.393Z,100250.67
2018-03-23T12:16:06.061Z,100246.09
2018-03-23T12:18:31.828Z,100247.78
2018-03-23T12:20:57.477Z,100247.61
2018-03-23T12:23:23.156Z,100236.72
2018-03-23T12:25:48.909Z,100241.57
2018-03-23T12:28:15.041Z,100234.41
2018-03-23T12:30:40.715Z,100222.14
2018-03-23T12:33:06.364Z,100218.64
2018-03-23T12:35:32.041Z,100222.70
2018-03-23T12:37:57.737Z,100215.36
2018-03-23T12:40:23.400Z,100224.63
2018-03-23T12:42:49.056Z,100218.30
2018-03-23T12:45:14.744Z,100215.84
2018-03-23T12:47:40.420Z,100212.77
2018-03-23T12:50:06.129Z,100211.81
2018-03-23T12:52:32.189Z,100214.86
2018-03-23T12:54:57.874Z,100211.32
2018-03-23T12:57:23.549Z,100198.98
2018-03-23T12:59:49.236Z,100197.31
2018-03-23T13:02:14.891Z,100199.34
2018-03-23T13:04:40.552Z,100197.91
2018-03-23T13:07:06.196Z,100197.45
2018-03-23T13:09:32.044Z,100194.98
2018-03-23T13:11:57.717Z,100199.64
2018-03-23T13:14:23.369Z,100192.95
2018-03-23T13:16:49.032Z,100195.03
2018-03-23T13:19:14.705Z,100186.19
2018-03-23T13:21:40.361Z,100170.50
2018-03-23T13:24:06.063Z,100176.70
2018-03-23T13:26:31.997Z,100171.20
2018-03-23T13:28:57.649Z,100170.80
2018-03-23T13:31:23.300Z,100172.95
2018-03-23T13:33:48.980Z,100170.45
2018-03-23T13:36:14.656Z,100170.79
2018-03-23T13:38:40.313Z,100168.41
2018-03-23T13:41:06.008Z,100166.48
2018-03-23T13:43:31.691Z,100170.25
2018-03-23T13:45:57.386Z,100175.63
2018-03-23T13:48:23.045Z,100167.08
2018-03-23T13:50:48.692Z,100166.57
2018-03-23T13:53:14.383Z,100161.91
2018-03-23T13:55:40.076Z,100160.91
2018-03-23T13:58:05.764Z,100163.58
2018-03-23T14:00:38.358Z,100158.69
2018-03-23T14:03:04.040Z,100155.59
2018-03-23T14:05:29.696Z,100150.27
2018-03-23T14:07:55.356Z,100144.75
2018-03-23T14:10:21.008Z,100152.56
2018-03-23T14:12:46.676Z,100151.55
2018-03-23T14:15:12.348Z,100152.18
2018-03-23T14:17:38.068Z,100146.69
2018-03-23T14:20:03.711Z,100146.26
2018-03-23T14:22:29.372Z,100147.64
2018-03-23T14:24:55.036Z,100147.88
2018-03-23T14:27:21.382Z,100143.45
2018-03-23T14:29:47.153Z,100141.08
2018-03-23T14:32:12.933Z,100137.72
2018-03-23T14:34:38.698Z,100134.73
2018-03-23T14:37:04.361Z,100127.05
2018-03-23T14:39:30.028Z,100131.48
2018-03-23T14:41:55.709Z,100126.05
2018-03-23T14:44:21.614Z,100114.17
2018-03-23T14:46:47.384Z,100121.53
2018-03-23T14:49:13.189Z,100119.97
2018-03-23T14:51:38.965Z,100118.78
2018-03-23T14:54:04.740Z,100113.06
2018-03-23T14:56:30.514Z,100111.63
2018-03-23T14:59:02.406Z,100114.91
2018-03-23T15:01:28.680Z,100110.17
2018-03-23T15:03:54.433Z,100097.13
2018-03-23T15:06:20.208Z,100101.66
2018-03-23T15:08:45.968Z,100102.66
2018-03-23T15:11:11.739Z,100098.03
2018-03-23T15:13:37.486Z,100094.78
2018-03-23T15:16:03.291Z,100097.06
2018-03-23T15:18:29.056Z,100097.84
2018-03-23T15:20:54.830Z,100093.36
2018-03-23T15:23:20.597Z,100090.84
2018-03-23T15:25:46.378Z,100092.47
2018-03-23T15:28:12.498Z,100097.73
2018-03-23T15:30:38.285Z,100095.11
2018-03-23T15:33:04.074Z,100089.97
2018-03-23T15:35:29.842Z,100087.58
2018-03-23T15:37:55.586Z,100092.89
2018-03-23T15:40:21.344Z,100090.67
2018-03-23T15:42:47.107Z,100090.63
2018-03-23T15:45:12.849Z,100089.73
2018-03-23T15:47:38.615Z,100088.81
2018-03-23T15:50:04.425Z,100089.67
2018-03-23T15:52:30.165Z,100080.77
2018-03-23T15:54:56.401Z,100083.39
2018-03-23T15:57:22.182Z,100087.14
2018-03-23T15:59:47.935Z,100086.13
2018-03-23T16:02:13.678Z,100088.48
2018-03-23T16:04:39.436Z,100084.52
2018-03-23T16:07:05.192Z,100085.16
2018-03-23T16:09:30.991Z,100089.80
2018-03-23T16:11:56.757Z,100085.52
2018-03-23T16:14:22.493Z,100086.30
2018-03-23T16:16:48.294Z,100089.73
2018-03-23T16:19:14.110Z,100087.30
2018-03-23T16:21:39.845Z,100091.39
2018-03-23T16:24:06.018Z,100084.91
2018-03-23T16:26:31.769Z,100084.92
2018-03-23T16:28:57.537Z,100083.59
2018-03-23T16:31:23.309Z,100074.70
2018-03-23T16:33:49.113Z,100070.71
2018-03-23T16:36:14.891Z,100075.54
2018-03-23T16:38:40.649Z,100067.63
2018-03-23T16:41:06.391Z,100060.27
2018-03-23T16:43:32.158Z,100054.42
2018-03-23T16:45:57.909Z,100058.17
2018-03-23T16:48:23.672Z,100062.48
2018-03-23T16:50:50.065Z,100069.45
2018-03-23T16:53:15.844Z,100082.46
2018-03-23T16:55:41.629Z,100087.38
2018-03-23T16:58:07.421Z,100077.91
2018-03-23T17:00:33.190Z,100085.34
2018-03-23T17:02:58.953Z,100092.00
2018-03-23T17:05:24.736Z,100083.78
2018-03-23T17:07:50.533Z,100091.20
2018-03-23T17:10:16.288Z,100089.23
2018-03-23T17:12:42.075Z,100092.55
2018-03-23T17:15:07.842Z,100097.25
2018-03-23T17:17:33.640Z,100093.32
2018-03-23T17:19:59.425Z,100091.63
2018-03-23T17:22:25.614Z,100087.92
2018-03-23T17:24:51.373Z,100095.84
2018-03-23T17:27:17.129Z,100093.04
2018-03-23T17:29:42.882Z,100088.44
2018-03-23T17:32:08.642Z,100085.63
2018-03-23T17:34:34.410Z,100092.75
2018-03-23T17:37:00.183Z,100091.86
2018-03-23T17:39:25.929Z,100084.13
2018-03-23T17:41:51.697Z,100083.20
2018-03-23T17:44:17.461Z,100087.27
2018-03-23T17:46:43.220Z,100084.99
2018-03-23T17:49:08.985Z,100087.55
2018-03-23T17:51:35.383Z,100084.41
2018-03-23T17:54:01.136Z,100088.56
2018-03-23T17:56:26.901Z,100082.47
2018-03-23T17:58:52.656Z,100087.98
2018-03-23T18:01:18.421Z,100084.67
2018-03-23T18:03:44.189Z,100090.99
2018-03-23T18:06:09.953Z,100090.42
2018-03-23T18:08:36.216Z,100085.28
2018-03-23T18:11:01.982Z,100084.67
2018-03-23T18:13:27.758Z,100084.13
2018-03-23T18:15:53.517Z,100085.91
2018-03-23T18:18:19.288Z,100085.81
2018-03-23T18:20:45.056Z,100090.12
2018-03-23T18:23:10.853Z,100090.86
2018-03-23T18:25:36.691Z,100096.67
2018-03-23T18:28:02.782Z,100090.92
2018-03-23T18:30:28.579Z,100064.80
2018-03-23T18:32:54.341Z,100095.08
2018-03-23T18:35:20.093Z,100089.39
2018-03-23T18:37:45.824Z,100090.50
2018-03-23T18:40:11.584Z,100097.63
2018-03-23T18:42:37.342Z,100093.15
2018-03-23T18:45:03.096Z,100095.63
2018-03-23T18:47:28.860Z,100099.08
2018-03-23T18:49:54.619Z,100102.66
2018-03-23T18:52:20.763Z,100102.05
2018-03-23T18:54:46.558Z,100077.99
2018-03-23T18:57:12.318Z,100088.35
2018-03-23T18:59:38.060Z,100089.78
2018-03-23T19:02:03.861Z,100089.53
2018-03-23T19:04:29.617Z,100089.62
2018-03-23T19:06:55.363Z,100096.16
2018-03-23T19:09:21.122Z,100096.31
2018-03-23T19:11:46.865Z,100097.69
2018-03-23T19:14:12.643Z,100097.36
2018-03-23T19:16:38.437Z,100096.85
2018-03-23T19:19:04.201Z,100095.44
2018-03-23T19:21:30.577Z,100095.66
2018-03-23T19:23:56.353Z,100094.16
2018-03-23T19:26:22.129Z,100094.44
2018-03-23T19:28:48.011Z,100088.78
2018-03-23T19:31:13.714Z,100080.50
2018-03-23T19:33:39.468Z,100088.78
2018-03-23T19:36:05.256Z,100093.89
2018-03-23T19:38:31.017Z,100093.47
2018-03-23T19:40:56.783Z,100087.56
2018-03-23T19:43:22.591Z,100087.50
2018-03-23T19:45:48.373Z,100091.91
2018-03-23T19:48:14.127Z,100087.30
2018-03-23T19:50:39.930Z,100089.98
2018-03-23T19:53:06.096Z,100088.25
2018-03-23T19:55:31.857Z,100087.10
2018-03-23T19:57:57.629Z,100083.18
2018-03-23T20:00:23.385Z,100079.73
2018-03-23T20:02:49.196Z,100079.41
2018-03-23T20:05:14.957Z,100083.24
2018-03-23T20:07:40.737Z,100087.10
2018-03-23T20:10:06.499Z,100072.73
2018-03-23T20:12:32.249Z,100082.78
2018-03-23T20:14:57.996Z,100081.91
2018-03-23T20:17:29.987Z,100078.22
2018-03-23T20:19:55.781Z,100087.20
2018-03-23T20:22:21.529Z,100087.67
2018-03-23T20:24:47.617Z,100084.02
2018-03-23T20:27:19.404Z,100085.33
2018-03-23T20:29:45.185Z,100081.30
2018-03-23T20:32:17.016Z,100076.28
2018-03-23T20:34:42.781Z,100076.97
2018-03-23T20:37:08.553Z,100079.86
2018-03-23T20:39:34.306Z,100077.98
2018-03-23T20:42:00.113Z,100073.48
2018-03-23T20:44:25.856Z,100060.13
2018-03-23T20:46:51.605Z,100072.16
2018-03-23T20:49:17.405Z,100069.25
2018-03-23T20:51:43.597Z,100068.63
2018-03-23T20:54:09.372Z,100061.98
2018-03-23T20:56:35.142Z,100062.08
2018-03-23T20:59:00.906Z,100064.41
2018-03-23T21:01:26.697Z,100058.98
2018-03-23T21:03:52.486Z,100057.53
2018-03-23T21:06:18.227Z,100052.38
2018-03-23T21:08:43.980Z,100051.42
2018-03-23T21:11:09.763Z,100053.78
2018-03-23T21:13:35.541Z,100049.44
2018-03-23T21:16:01.299Z,100050.39
2018-03-23T21:18:27.070Z,100056.93
2018-03-23T21:20:52.820Z,100050.39
2018-03-23T21:23:19.041Z,100063.67
2018-03-23T21:25:44.801Z,100062.02
2018-03-23T21:28:10.564Z,100058.19
2018-03-23T21:30:36.337Z,100058.99
2018-03-23T21:33:02.171Z,100062.02
2018-03-23T21:35:27.933Z,100064.84
2018-03-23T21:37:53.792Z,100064.56
2018-03-23T21:40:19.553Z,100058.72
2018-03-23T21:42:45.331Z,100058.45
2018-03-23T21:45:11.093Z,100052.67
2018-03-23T21:47:36.877Z,100062.39
2018-03-23T21:50:02.630Z,100062.71
2018-03-23T21:52:28.403Z,100057.98
2018-03-23T21:54:54.488Z,100054.66
2018-03-23T21:57:20.248Z,100051.66
2018-03-23T21:59:45.989Z,100054.33
2018-03-23T22:02:11.782Z,100058.58
2018-03-23T22:04:37.542Z,100057.78
2018-03-23T22:07:03.315Z,100057.78
2018-03-23T22:09:29.090Z,100057.90
2018-03-23T22:11:54.854Z,100060.66
2018-03-23T22:14:20.621Z,100066.92
2018-03-23T22:16:46.420Z,100065.47
2018-03-23T22:19:12.191Z,100065.11
2018-03-23T22:21:37.960Z,100069.54
2018-03-23T22:24:04.094Z,100064.99
2018-03-23T22:26:29.868Z,100069.17
2018-03-23T22:28:55.671Z,100070.90
2018-03-23T22:31:21.438Z,100066.72
2018-03-23T22:33:47.196Z,100065.94
2018-03-23T22:36:12.952Z,100071.53
2018-03-23T22:38:38.722Z,100043.29
2018-03-23T22:41:04.481Z,100064.64
2018-03-23T22:43:30.253Z,100063.42
2018-03-23T22:45:56.012Z,100061.61
2018-03-23T22:48:21.790Z,100061.97
2018-03-23T22:50:47.994Z,100060.09
2018-03-23T22:53:13.761Z,100067.20
2018-03-23T22:55:39.532Z,100062.52
2018-03-23T22:58:05.301Z,100066.52
2018-03-23T23:00:31.072Z,100060.79
2018-03-23T23:02:56.833Z,100066.31
2018-03-23T23:05:22.601Z,100056.75
2018-03-23T23:07:48.372Z,100060.11
2018-03-23T23:10:14.184Z,100062.24
2018-03-23T23:12:39.930Z,100057.85
2018-03-23T23:15:05.668Z,100050.08
2018-03-23T23:17:31.455Z,100056.88
2018-03-23T23:19:57.837Z,100057.70
2018-03-23T23:22:23.621Z,100049.95
2018-03-23T23:24:49.374Z,100047.88
2018-03-23T23:27:15.149Z,100051.86
2018-03-23T23:29:40.954Z,100046.16
2018-03-23T23:32:06.727Z,100030.44
2018-03-23T23:34:32.474Z,100046.36
2018-03-23T23:36:58.221Z,100032.35
2018-03-23T23:39:23.965Z,100044.86
2018-03-23T23:41:49.726Z,100041.83
2018-03-23T23:44:15.483Z,100046.84
2018-03-23T23:46:41.242Z,100037.37
2018-03-23T23:49:07.013Z,100038.69
2018-03-23T23:51:33.146Z,100043.49
2018-03-23T23:53:58.904Z,100041.89
2018-03-23T23:56:24.680Z,100033.58
2018-03-23T23:58:50.437Z,100037.45
